Welcome to Northern Hawkes Bay. New Zealand.
PWS Header
      nz Flag



Hit Counter


W3C Valid W3C Valid logo


    Wairoa

Select any of the Stations below to visit their websites.










Historic Data from Weather Underground
Select the location of interest below. Wairoa is the default. Please have patience, this Data is slow to load in.
Northern Hawkes Bay Historical Data
Daily Summary for June 14, 2017 Units:  English    Metric   Both
« Previous Day
Next Day »
Daily Weekly Monthly Yearly Custom
  High: Low: Average:
Temperature: 58.3 °F 47.1 °F 53.4 °F
Dew Point: 47.7 °F 32.7 °F 39.4 °F
Humidity: 80% 41% 60%
Wind Speed: 28.2mph 0mph 8.3mph
Wind Gust: 38mph - -
Wind- - West
Pressure: 30.1 in 29.6 in -
Precipitation: 0 in    
Historical Graphs
 
 
Tabular Data for June 14, 2017
Time Temperature Dew Point Pressure Wind Wind Speed Wind Gust Humidity Rainfall Rate (Hourly) solar
00:00 54.5 °F 46.8 °F 29.7 in ENE 0.7 mph 3.1 mph 75% 0 in 0 W/m2
00:05 54.5 °F 47.1 °F 29.7 in ENE 0.7 mph 3.8 mph 76% 0 in 0 W/m2
00:10 54.7 °F 47.3 °F 29.7 in NE 2.2 mph 6 mph 76% 0 in 0 W/m2
00:15 54.7 °F 47.3 °F 29.7 in ENE 3.1 mph 6 mph 76% 0 in 0 W/m2
00:20 54.9 °F 47.1 °F 29.7 in ENE 1.6 mph 6 mph 75% 0 in 0 W/m2
00:25 55.4 °F 47.7 °F 29.7 in ENE 1.6 mph 5.4 mph 75% 0 in 0 W/m2
00:30 55.8 °F 47.1 °F 29.7 in Calm   4.5 mph 73% 0 in 0 W/m2
00:35 55.4 °F 46.9 °F 29.7 in ENE 0.7 mph 3.1 mph 73% 0 in 0 W/m2
00:40 55.4 °F 46.9 °F 29.7 in Calm   3.1 mph 73% 0 in 0 W/m2
00:45 55.4 °F 46.6 °F 29.7 in NE 0.7 mph 3.1 mph 72% 0 in 0 W/m2
00:50 55.2 °F 46.4 °F 29.7 in NE 0.7 mph 2.2 mph 72% 0 in 0 W/m2
00:55 54.7 °F 46.2 °F 29.7 in NNW 0.7 mph 2.2 mph 73% 0 in 0 W/m2
01:00 54.1 °F 45.7 °F 29.7 in NNW 1.6 mph 2.2 mph 73% 0 in 0 W/m2
01:05 53.6 °F 45.5 °F 29.7 in NNW 1.6 mph 3.1 mph 74% 0 in 0 W/m2
01:10 53.4 °F 46 °F 29.7 in NW 1.6 mph 4.5 mph 76% 0 in 0 W/m2
01:14 52.7 °F 45.7 °F 29.7 in NW 2.2 mph 4.5 mph 77% 0 in 0 W/m2
01:19 52.7 °F 46 °F 29.7 in NW 1.6 mph 4.5 mph 78% 0 in 0 W/m2
01:24 52.7 °F 45.7 °F 29.7 in NW 1.6 mph 4.5 mph 77% 0 in 0 W/m2
01:29 52 °F 45 °F 29.7 in Calm   3.8 mph 77% 0 in 0 W/m2
01:34 51.4 °F 45.1 °F 29.7 in Calm   3.1 mph 79% 0 in 0 W/m2
01:39 51.1 °F 45.1 °F 29.7 in Calm   1.6 mph 80% 0 in 0 W/m2
01:40 51.1 °F 45.1 °F 29.7 in WNW 3.8 mph 6 mph 80% 0 in 0 W/m2
01:45 51.8 °F 45.1 °F 29.7 in West 0.7 mph 6 mph 78% 0 in 0 W/m2
01:50 52.3 °F 45 °F 29.7 in West 1.6 mph 6 mph 76% 0 in 0 W/m2
01:55 52.9 °F 44.8 °F 29.7 in WNW 1.6 mph 3.8 mph 74% 0 in 0 W/m2
02:00 52.7 °F 44.2 °F 29.7 in Calm   3.8 mph 73% 0 in 0 W/m2
02:05 51.8 °F 43.3 °F 29.7 in NW 3.1 mph 4.5 mph 73% 0 in 0 W/m2
02:10 52.7 °F 43.9 °F 29.7 in NW 3.1 mph 11.4 mph 72% 0 in 0 W/m2
02:15 53.6 °F 43.3 °F 29.7 in NW 3.8 mph 11.4 mph 68% 0 in 0 W/m2
02:21 52.9 °F 43.3 °F 29.7 in NW 3.1 mph 6 mph 70% 0 in 0 W/m2
02:26 52.7 °F 43.2 °F 29.7 in NNW 6.9 mph 13 mph 70% 0 in 0 W/m2
02:31 55.2 °F 43.7 °F 29.6 in NNW 9.8 mph 15.2 mph 65% 0 in 0 W/m2
02:36 56.5 °F 43.2 °F 29.6 in NNW 9.2 mph 17.4 mph 61% 0 in 0 W/m2
02:41 57 °F 42.8 °F 29.6 in NW 8.3 mph 17.4 mph 59% 0 in 0 W/m2
02:46 57 °F 42.4 °F 29.6 in NW 6.9 mph 17.4 mph 58% 0 in 0 W/m2
02:51 57 °F 41.9 °F 29.6 in NNW 8.3 mph 16.8 mph 57% 0 in 0 W/m2
02:56 57.4 °F 41.7 °F 29.6 in NNW 13.6 mph 17.4 mph 56% 0 in 0 W/m2
03:01 57 °F 41.9 °F 29.6 in NNW 9.2 mph 17.4 mph 57% 0 in 0 W/m2
03:06 57 °F 41.9 °F 29.6 in NNW 11.4 mph 20.6 mph 57% 0 in 0 W/m2
03:11 57.6 °F 42.1 °F 29.6 in NW 8.3 mph 22.8 mph 56% 0 in 0 W/m2
03:16 57.6 °F 42.1 °F 29.6 in NW 9.8 mph 22.8 mph 56% 0 in 0 W/m2
03:21 57.6 °F 42.1 °F 29.6 in NW 12.1 mph 25.9 mph 56% 0 in 0 W/m2
03:26 57.4 °F 41.7 °F 29.6 in NW 12.1 mph 25.9 mph 56% 0 in 0 W/m2
03:31 57.2 °F 41.7 °F 29.6 in NW 12.1 mph 19.7 mph 56% 0 in 0 W/m2
03:41 57.4 °F 41.4 °F 29.6 in NW 9.2 mph 28.2 mph 55% 0 in 0 W/m2
03:46 57.2 °F 41.2 °F 29.6 in NW 12.1 mph 28.2 mph 55% 0 in 0 W/m2
03:51 57.2 °F 41.2 °F 29.6 in NW 19.7 mph 26.6 mph 55% 0 in 0 W/m2
03:56 57.4 °F 41.4 °F 29.6 in NW 9.8 mph 26.6 mph 55% 0 in 0 W/m2
04:01 57 °F 41.5 °F 29.6 in WNW 9.8 mph 26.6 mph 56% 0 in 0 W/m2
04:06 57 °F 41.9 °F 29.6 in NW 4.5 mph 17.4 mph 57% 0 in 0 W/m2
04:11 56.7 °F 41.5 °F 29.6 in WNW 13.6 mph 22.8 mph 57% 0 in 0 W/m2
04:16 57.2 °F 41.7 °F 29.6 in WNW 6.9 mph 22.8 mph 56% 0 in 0 W/m2
04:21 57.4 °F 41.7 °F 29.6 in WNW 7.6 mph 22.8 mph 56% 0 in 0 W/m2
04:26 58.1 °F 42.1 °F 29.7 in WNW 9.8 mph 20.6 mph 55% 0 in 0 W/m2
04:31 58.3 °F 42.6 °F 29.7 in West 12.1 mph 28.2 mph 56% 0 in 0 W/m2
04:36 57.2 °F 44.2 °F 29.7 in WNW 11.4 mph 28.2 mph 62% 0 in 0 W/m2
04:41 56.7 °F 45 °F 29.7 in West 6 mph 22.8 mph 65% 0 in 0 W/m2
04:46 55.9 °F 44.8 °F 29.7 in WNW 8.3 mph 22.8 mph 66% 0 in 0 W/m2
04:51 56.1 °F 45.3 °F 29.7 in WNW 8.3 mph 18.3 mph 67% 0 in 0 W/m2
04:56 55.9 °F 45.1 °F 29.7 in West 10.7 mph 17.4 mph 67% 0 in 0 W/m2
05:01 56.1 °F 45.3 °F 29.7 in West 8.3 mph 17.4 mph 67% 0 in 0 W/m2
05:06 55.8 °F 45.3 °F 29.7 in West 11.4 mph 24.4 mph 68% 0 in 0 W/m2
05:11 54.9 °F 45.7 °F 29.7 in WSW 8.3 mph 24.4 mph 71% 0 in 0 W/m2
05:16 54.1 °F 45.7 °F 29.7 in WSW 6.9 mph 18.3 mph 73% 0 in 0 W/m2
05:21 53.8 °F 45.7 °F 29.7 in West 6 mph 15.2 mph 74% 0 in 0 W/m2
05:26 53.4 °F 46 °F 29.7 in West 5.4 mph 10.7 mph 76% 0 in 0 W/m2
05:31 53.2 °F 45.5 °F 29.7 in WNW 7.6 mph 19 mph 75% 0 in 0 W/m2
05:36 52.7 °F 44.8 °F 29.7 in WNW 11.4 mph 20.6 mph 74% 0 in 0 W/m2
05:41 52.5 °F 44.1 °F 29.7 in West 5.4 mph 20.6 mph 73% 0 in 0 W/m2
05:46 52.2 °F 43.9 °F 29.7 in West 13.6 mph 19.7 mph 73% 0 in 0 W/m2
05:51 52.7 °F 42.4 °F 29.7 in West 9.2 mph 20.6 mph 68% 0 in 0 W/m2
05:56 53.1 °F 41.2 °F 29.7 in WSW 8.3 mph 20.6 mph 64% 0 in 0 W/m2
06:01 52.9 °F 40.6 °F 29.7 in WSW 8.3 mph 19 mph 63% 0 in 0 W/m2
06:20 53.6 °F 37.8 °F 29.7 in West 13.6 mph 21.3 mph 55% 0 in 0 W/m2
06:25 53.6 °F 38.7 °F 29.7 in West 15.2 mph 22.8 mph 57% 0 in 0 W/m2
06:30 53.2 °F 39.4 °F 29.7 in WSW 10.7 mph 24.4 mph 59% 0 in 0 W/m2
06:35 53.1 °F 40.5 °F 29.8 in WSW 11.4 mph 24.4 mph 62% 0 in 0 W/m2
06:40 52.7 °F 40.5 °F 29.8 in WSW 15.2 mph 21.3 mph 63% 0 in 0 W/m2
06:45 52.2 °F 40.5 °F 29.8 in West 10.7 mph 25.1 mph 64% 0 in 0 W/m2
06:50 51.3 °F 41.2 °F 29.8 in West 5.4 mph 25.1 mph 68% 0 in 0 W/m2
06:55 51.4 °F 40.1 °F 29.8 in West 5.4 mph 22.1 mph 65% 0 in 0 W/m2
07:00 51.8 °F 39.2 °F 29.8 in West 9.2 mph 16.8 mph 62% 0 in 0 W/m2
07:05 51.8 °F 39.2 °F 29.8 in West 9.8 mph 15.2 mph 62% 0 in 0 W/m2
07:10 51.8 °F 39.2 °F 29.8 in WNW 6.9 mph 15.2 mph 62% 0 in 0 W/m2
07:15 51.6 °F 39.4 °F 29.8 in WNW 6.9 mph 19.7 mph 63% 0 in 0 W/m2
07:20 51.4 °F 39.4 °F 29.8 in West 6.9 mph 19.7 mph 63% 0 in 0 W/m2
07:25 51.3 °F 38.3 °F 29.8 in WSW 5.4 mph 16.8 mph 61% 0 in 0 W/m2
07:30 51.3 °F 38.3 °F 29.8 in West 5.4 mph 15.2 mph 61% 0 in 0 W/m2
07:35 51.3 °F 38.3 °F 29.8 in West 4.5 mph 15.2 mph 61% 0 in 1 W/m2
07:40 51.3 °F 37.9 °F 29.8 in West 7.6 mph 19 mph 60% 0 in 3 W/m2
07:45 51.4 °F 37.6 °F 29.8 in West 6 mph 19 mph 59% 0 in 5 W/m2
07:50 51.3 °F 37.9 °F 29.8 in West 5.4 mph 15.9 mph 60% 0 in 11 W/m2
07:55 51.3 °F 37.9 °F 29.8 in WSW 6.9 mph 15.9 mph 60% 0 in 8 W/m2
08:00 51.3 °F 38.3 °F 29.8 in WSW 6.9 mph 18.3 mph 61% 0 in 12 W/m2
08:05 51.3 °F 38.7 °F 29.8 in WSW 4.5 mph 19.7 mph 62% 0 in 16 W/m2
08:10 51.4 °F 38.5 °F 29.8 in West 5.4 mph 19.7 mph 61% 0 in 20 W/m2
08:15 51.3 °F 38.7 °F 29.8 in West 6 mph 16.8 mph 62% 0 in 20 W/m2
08:20 50.9 °F 38.8 °F 29.8 in West 7.6 mph 15.9 mph 63% 0 in 23 W/m2
08:25 50.5 °F 38.8 °F 29.8 in WNW 7.6 mph 15.9 mph 64% 0 in 27 W/m2
08:30 50.4 °F 38.7 °F 29.8 in West 7.6 mph 16.8 mph 64% 0 in 46 W/m2
08:35 50.4 °F 38.7 °F 29.8 in West 7.6 mph 17.4 mph 64% 0 in 38 W/m2
08:40 50.5 °F 38.8 °F 29.8 in West 5.4 mph 17.4 mph 64% 0 in 128 W/m2
08:45 50.9 °F 39.2 °F 29.8 in West 5.4 mph 13 mph 64% 0 in 122 W/m2
08:50 51.4 °F 39.7 °F 29.8 in WNW 6 mph 13 mph 64% 0 in 147 W/m2
08:55 51.8 °F 39.6 °F 29.8 in West 3.8 mph 13 mph 63% 0 in 157 W/m2
09:01 52.3 °F 40.1 °F 29.8 in West 3.8 mph 11.4 mph 63% 0 in 168 W/m2
09:06 52.9 °F 40.3 °F 29.8 in West 3.1 mph 11.4 mph 62% 0 in 176 W/m2
09:11 53.1 °F 40.5 °F 29.8 in West 3.8 mph 11.4 mph 62% 0 in 183 W/m2
09:16 53.6 °F 40.5 °F 29.8 in WNW 3.8 mph 9.2 mph 61% 0 in 191 W/m2
09:21 53.8 °F 39.7 °F 29.8 in West 4.5 mph 11.4 mph 59% 0 in 199 W/m2
09:26 54.1 °F 39.7 °F 29.8 in West 6.9 mph 12.1 mph 58% 0 in 205 W/m2
09:31 54.3 °F 39.4 °F 29.8 in West 6.9 mph 14.5 mph 57% 0 in 213 W/m2
09:36 54.7 °F 39.7 °F 29.8 in West 5.4 mph 14.5 mph 57% 0 in 217 W/m2
09:41 54.7 °F 39.4 °F 29.8 in West 6.9 mph 14.5 mph 56% 0 in 186 W/m2
09:46 55 °F 41 °F 29.8 in West 6.9 mph 12.1 mph 59% 0 in 139 W/m2
09:51 54.7 °F 41.2 °F 29.8 in WNW 5.4 mph 11.4 mph 60% 0 in 120 W/m2
09:56 54.5 °F 40.8 °F 29.8 in NW 5.4 mph 11.4 mph 60% 0 in 84 W/m2
10:01 54.3 °F 41.2 °F 29.8 in NW 6 mph 13.6 mph 61% 0 in 87 W/m2
10:06 54.7 °F 41.5 °F 29.8 in NW 9.8 mph 13.6 mph 61% 0 in 85 W/m2
10:11 54.9 °F 41.7 °F 29.8 in WNW 6.9 mph 12.1 mph 61% 0 in 76 W/m2
10:16 55 °F 41.4 °F 29.8 in West 5.4 mph 13 mph 60% 0 in 69 W/m2
10:21 55.4 °F 40.5 °F 29.8 in West 4.5 mph 13 mph 57% 0 in 67 W/m2
10:26 55.9 °F 40.5 °F 29.8 in WSW 7.6 mph 15.2 mph 56% 0 in 65 W/m2
10:31 55.4 °F 39.6 °F 29.9 in WSW 9.2 mph 16.8 mph 55% 0 in 62 W/m2
10:36 55.4 °F 39 °F 29.8 in West 9.2 mph 16.8 mph 54% 0 in 58 W/m2
10:41 55.6 °F 39.2 °F 29.9 in West 6 mph 14.5 mph 54% 0 in 56 W/m2
10:46 55.4 °F 38.1 °F 29.8 in West 9.2 mph 15.9 mph 52% 0 in 54 W/m2
10:51 55.6 °F 38.1 °F 29.9 in West 6.9 mph 18.3 mph 52% 0 in 53 W/m2
10:56 55.8 °F 38.8 °F 29.9 in West 3.1 mph 18.3 mph 53% 0 in 53 W/m2
11:01 56.1 °F 38.3 °F 29.8 in West 6.9 mph 14.5 mph 51% 0 in 53 W/m2
11:06 56.5 °F 38.7 °F 29.9 in West 6.9 mph 14.5 mph 51% 0 in 52 W/m2
11:11 56.5 °F 37.6 °F 29.9 in WSW 10.7 mph 15.2 mph 49% 0 in 52 W/m2
11:16 56.7 °F 37.2 °F 29.9 in West 7.6 mph 15.2 mph 48% 0 in 52 W/m2
11:21 56.7 °F 35.6 °F 29.9 in WNW 8.3 mph 15.9 mph 45% 0 in 52 W/m2
11:26 56.7 °F 36.7 °F 29.9 in West 6 mph 15.9 mph 47% 0 in 51 W/m2
11:31 57 °F 36.5 °F 29.9 in West 8.3 mph 17.4 mph 46% 0 in 52 W/m2
11:36 57 °F 36 °F 29.9 in West 9.8 mph 17.4 mph 45% 0 in 52 W/m2
11:41 57 °F 36 °F 29.9 in West 10.7 mph 19.7 mph 45% 0 in 52 W/m2
11:46 56.7 °F 36.1 °F 29.9 in West 6.9 mph 25.1 mph 46% 0 in 52 W/m2
11:51 56.7 °F 36.1 °F 29.9 in West 9.8 mph 25.1 mph 46% 0 in 52 W/m2
11:56 56.7 °F 36.1 °F 29.9 in WSW 9.2 mph 19.7 mph 46% 0 in 53 W/m2
12:01 56.7 °F 36.7 °F 29.9 in West 9.8 mph 20.6 mph 47% 0 in 53 W/m2
12:06 57 °F 37 °F 29.9 in West 7.6 mph 20.6 mph 47% 0 in 53 W/m2
12:11 57.2 °F 36.7 °F 29.9 in WSW 4.5 mph 19 mph 46% 0 in 52 W/m2
12:29 57.6 °F 37.6 °F 29.9 in WSW 9.8 mph 20.6 mph 47% 0 in 58 W/m2
12:34 57.2 °F 37.8 °F 29.9 in WSW 8.3 mph 19 mph 48% 0 in 57 W/m2
12:39 57.2 °F 38.1 °F 29.9 in WSW 12.1 mph 20.6 mph 49% 0 in 59 W/m2
12:44 57.2 °F 37.8 °F 29.9 in WSW 17.4 mph 20.6 mph 48% 0 in 74 W/m2
12:49 57.2 °F 38.1 °F 29.9 in WSW 13 mph 20.6 mph 49% 0 in 95 W/m2
12:54 56.7 °F 38.1 °F 29.9 in WSW 6.9 mph 20.6 mph 50% 0 in 110 W/m2
13:00 57.9 °F 38.5 °F 29.9 in WSW 10.7 mph 20.6 mph 48% 0 in 133 W/m2
13:05 57.2 °F 37.8 °F 29.9 in WSW 9.2 mph 19.7 mph 48% 0 in 137 W/m2
13:25 56.5 °F 36.5 °F 29.9 in West 6.9 mph 19 mph 47% 0 in 98 W/m2
13:30 56.3 °F 35.8 °F 29.9 in West 6.9 mph 18.3 mph 46% 0 in 79 W/m2
13:35 56.1 °F 35.6 °F 29.9 in WNW 6.9 mph 12.1 mph 46% 0 in 95 W/m2
13:40 56.7 °F 35.1 °F 29.9 in West 11.4 mph 17.4 mph 44% 0 in 95 W/m2
13:45 57.7 °F 34.2 °F 29.9 in WNW 9.8 mph 17.4 mph 41% 0 in 88 W/m2
13:51 56.5 °F 33.6 °F 29.9 in WNW 8.3 mph 13 mph 42% 0 in 91 W/m2
13:56 54.9 °F 32.7 °F 29.9 in WNW 9.2 mph 15.9 mph 43% 0 in 103 W/m2
14:01 54.7 °F 33.8 °F 29.9 in NW 9.8 mph 15.9 mph 45% 0 in 96 W/m2
14:06 54.1 °F 32.7 °F 29.9 in WNW 9.2 mph 15.2 mph 44% 0 in 148 W/m2
14:11 54.1 °F 33.3 °F 29.9 in West 6 mph 17.4 mph 45% 0 in 235 W/m2
14:16 55 °F 34.5 °F 29.9 in West 8.3 mph 17.4 mph 46% 0 in 229 W/m2
14:21 55.9 °F 35.4 °F 29.9 in WNW 6.9 mph 11.4 mph 46% 0 in 245 W/m2
14:26 57 °F 36 °F 29.9 in West 6 mph 11.4 mph 45% 0 in 214 W/m2
14:31 56.7 °F 35.6 °F 29.9 in West 6 mph 10.7 mph 45% 0 in 233 W/m2
14:36 56.7 °F 35.6 °F 29.9 in West 3.1 mph 12.1 mph 45% 0 in 227 W/m2
14:41 56.7 °F 35.6 °F 29.9 in West 4.5 mph 12.1 mph 45% 0 in 220 W/m2
14:46 57 °F 36 °F 29.9 in West 4.5 mph 12.1 mph 45% 0 in 213 W/m2
14:51 57.2 °F 34.9 °F 29.9 in West 6 mph 12.1 mph 43% 0 in 205 W/m2
14:56 56.5 °F 34.3 °F 29.9 in West 6 mph 13.6 mph 43% 0 in 197 W/m2
15:01 56.5 °F 35.4 °F 29.9 in West 5.4 mph 13.6 mph 45% 0 in 185 W/m2
15:06 56.7 °F 35.6 °F 29.9 in West 6.9 mph 12.1 mph 45% 0 in 169 W/m2
15:11 56.7 °F 35.6 °F 29.9 in West 5.4 mph 12.1 mph 45% 0 in 155 W/m2
15:16 56.7 °F 35.6 °F 29.9 in West 3.1 mph 10.7 mph 45% 0 in 137 W/m2
15:21 56.7 °F 35.6 °F 29.9 in West 3.8 mph 9.8 mph 45% 0 in 128 W/m2
15:26 57 °F 36 °F 29.9 in West 3.1 mph 9.2 mph 45% 0 in 120 W/m2
15:31 56.7 °F 35.6 °F 29.9 in WSW 6 mph 15.2 mph 45% 0 in 112 W/m2
15:36 55.9 °F 35.4 °F 29.9 in WSW 5.4 mph 15.2 mph 46% 0 in 103 W/m2
15:41 55.8 °F 35.8 °F 29.9 in WSW 3.8 mph 13 mph 47% 0 in 93 W/m2
15:46 55.9 °F 36 °F 29.9 in West 4.5 mph 13 mph 47% 0 in 84 W/m2
15:51 55.9 °F 36 °F 29.9 in West 6.9 mph 13 mph 47% 0 in 74 W/m2
15:56 55.2 °F 35.4 °F 29.9 in WSW 6 mph 13 mph 47% 0 in 64 W/m2
16:01 55.2 °F 36 °F 29.9 in West 2.2 mph 11.4 mph 48% 0 in 56 W/m2
16:06 55.4 °F 35.4 °F 29.9 in West 5.4 mph 11.4 mph 47% 0 in 48 W/m2
16:11 55 °F 36.1 °F 29.9 in West 3.8 mph 7.6 mph 49% 0 in 40 W/m2
16:16 54.9 °F 36.1 °F 29.9 in West 5.4 mph 8.3 mph 49% 0 in 33 W/m2
16:21 54.1 °F 36 °F 29.9 in West 2.2 mph 11.4 mph 50% 0 in 28 W/m2
16:26 54.1 °F 36.3 °F 29.9 in West 3.1 mph 11.4 mph 51% 0 in 22 W/m2
16:31 53.8 °F 36.1 °F 29.9 in West 3.1 mph 6 mph 51% 0 in 18 W/m2
16:36 53.4 °F 36.1 °F 29.9 in West 2.2 mph 6.9 mph 52% 0 in 11 W/m2
16:41 52.9 °F 35.8 °F 29.9 in West 3.1 mph 6.9 mph 52% 0 in 7 W/m2
16:46 52 °F 35.4 °F 29.9 in West 3.1 mph 5.4 mph 53% 0 in 4 W/m2
16:51 51.4 °F 35.8 °F 29.9 in WNW 1.6 mph 5.4 mph 55% 0 in 1 W/m2
16:56 51.1 °F 36 °F 29.9 in WNW 3.1 mph 6.9 mph 56% 0 in 0 W/m2
17:01 50.9 °F 36.1 °F 29.9 in WNW 4.5 mph 6.9 mph 57% 0 in 0 W/m2
17:06 50.7 °F 36.1 °F 29.9 in NW 4.5 mph 7.6 mph 57% 0 in 0 W/m2
17:11 50.4 °F 36.1 °F 29.9 in NW 2.2 mph 7.6 mph 58% 0 in 0 W/m2
17:16 50 °F 36.1 °F 29.9 in NW 3.8 mph 6 mph 59% 0 in 0 W/m2
17:21 49.6 °F 36.9 °F 29.9 in NW 3.1 mph 6 mph 61% 0 in 0 W/m2
17:26 49.1 °F 37 °F 29.9 in NW 3.8 mph 6 mph 63% 0 in 0 W/m2
17:31 48.7 °F 37 °F 29.9 in NW 3.8 mph 6 mph 64% 0 in 0 W/m2
17:36 48.4 °F 36.9 °F 29.9 in NW 3.8 mph 6 mph 64% 0 in 0 W/m2
17:41 48 °F 37.2 °F 29.9 in NW 3.8 mph 6 mph 66% 0 in 0 W/m2
17:46 47.7 °F 37.2 °F 29.9 in NW 2.2 mph 5.4 mph 67% 0 in 0 W/m2
18:03 47.1 °F 37 °F 30 in NW 3.1 mph 6 mph 68% 0 in 0 W/m2
18:08 47.1 °F 37 °F 30 in NW 3.1 mph 6 mph 68% 0 in 0 W/m2
18:13 47.3 °F 37.2 °F 30 in NW 3.8 mph 6 mph 68% 0 in 0 W/m2
18:18 47.3 °F 37.2 °F 30 in NW 3.1 mph 6 mph 68% 0 in 0 W/m2
18:23 47.5 °F 37 °F 30 in WNW 2.2 mph 9.8 mph 67% 0 in 0 W/m2
18:28 48.9 °F 37.8 °F 30 in West 3.8 mph 9.8 mph 65% 0 in 0 W/m2
18:33 49.6 °F 37.6 °F 30 in West 3.8 mph 9.2 mph 63% 0 in 0 W/m2
18:38 50 °F 37 °F 30 in West 2.2 mph 9.8 mph 61% 0 in 0 W/m2
18:43 50 °F 37 °F 30 in West 3.8 mph 9.8 mph 61% 0 in 0 W/m2
18:48 50.2 °F 38.1 °F 30 in WSW 8.3 mph 13 mph 63% 0 in 0 W/m2
18:53 50.9 °F 39.2 °F 30 in WSW 9.8 mph 15.9 mph 64% 0 in 0 W/m2
18:58 51.4 °F 39.4 °F 30 in SW 7.6 mph 20.6 mph 63% 0 in 0 W/m2
19:03 51.4 °F 39.4 °F 30 in SW 13.6 mph 21.3 mph 63% 0 in 0 W/m2
19:08 51.6 °F 39.4 °F 30 in SW 9.8 mph 21.3 mph 63% 0 in 0 W/m2
19:13 51.3 °F 39 °F 30 in SW 9.8 mph 21.3 mph 63% 0 in 0 W/m2
19:18 51.3 °F 39 °F 30 in SW 13 mph 17.4 mph 63% 0 in 0 W/m2
19:23 51.3 °F 39 °F 30 in SW 13 mph 19.7 mph 63% 0 in 0 W/m2
19:28 51.3 °F 37.9 °F 30 in WSW 13.6 mph 19.7 mph 60% 0 in 0 W/m2
19:33 51.3 °F 37.9 °F 30 in SW 10.7 mph 24.4 mph 60% 0 in 0 W/m2
19:38 51.3 °F 37.4 °F 30 in WSW 14.5 mph 24.4 mph 59% 0 in 0 W/m2
19:43 51.3 °F 37.9 °F 30 in WSW 11.4 mph 20.6 mph 60% 0 in 0 W/m2
19:48 51.3 °F 38.7 °F 30 in WSW 7.6 mph 19.7 mph 62% 0 in 0 W/m2
19:53 51.3 °F 37.9 °F 30 in WSW 11.4 mph 21.3 mph 60% 0 in 0 W/m2
19:58 51.3 °F 36.7 °F 30 in SW 13 mph 21.3 mph 57% 0 in 0 W/m2
20:03 51.3 °F 37 °F 30 in SW 13.6 mph 21.3 mph 58% 0 in 0 W/m2
20:08 51.4 °F 35.4 °F 30 in SW 14.5 mph 27.3 mph 54% 0 in 0 W/m2
20:13 51.3 °F 36.1 °F 30 in SW 21.3 mph 27.3 mph 56% 0 in 0 W/m2
20:18 51.4 °F 35.8 °F 30 in SW 13.6 mph 27.3 mph 55% 0 in 0 W/m2
20:23 51.3 °F 35.8 °F 30 in SW 15.9 mph 32.7 mph 55% 0 in 0 W/m2
20:39 50.9 °F 36.7 °F 30 in WSW 14.5 mph 29.8 mph 58% 0 in 0 W/m2
20:44 50.9 °F 37.6 °F 30 in SW 22.1 mph 33.6 mph 60% 0 in 0 W/m2
20:49 50.7 °F 36.9 °F 30 in SSW 15.9 mph 33.6 mph 59% 0 in 0 W/m2
20:54 50.7 °F 37.4 °F 30 in SSW 19 mph 31.1 mph 60% 0 in 0 W/m2
20:59 50.5 °F 37.9 °F 30 in SSW 17.4 mph 28.9 mph 62% 0 in 0 W/m2
21:04 50.5 °F 37.6 °F 30 in SW 12.1 mph 23.5 mph 61% 0 in 0 W/m2
21:09 50.5 °F 36.9 °F 30 in SW 13 mph 23.5 mph 59% 0 in 0 W/m2
21:14 50.4 °F 37.4 °F 30 in SW 9.2 mph 24.4 mph 61% 0 in 0 W/m2
21:19 50.4 °F 37.8 °F 30 in SW 10.7 mph 24.4 mph 62% 0 in 0 W/m2
21:24 50.4 °F 38.3 °F 30 in SW 11.4 mph 21.3 mph 63% 0 in 0 W/m2
21:29 50.5 °F 37.6 °F 30 in SW 18.3 mph 23.5 mph 61% 0 in 0 W/m2
21:34 50.4 °F 37 °F 30.1 in WSW 20.6 mph 27.3 mph 60% 0 in 0 W/m2
21:39 50.5 °F 36.9 °F 30.1 in SW 19 mph 28.2 mph 59% 0 in 0 W/m2
21:44 50.5 °F 37.6 °F 30.1 in SW 13.6 mph 28.2 mph 61% 0 in 0 W/m2
21:49 50.5 °F 36.9 °F 30.1 in SW 17.4 mph 28.9 mph 59% 0 in 0 W/m2
21:54 50.4 °F 37 °F 30.1 in SW 14.5 mph 28.9 mph 60% 0 in 0 W/m2
21:59 50.4 °F 36.7 °F 30.1 in WSW 17.4 mph 28.2 mph 59% 0 in 0 W/m2
22:04 50.4 °F 37 °F 30.1 in SW 10.7 mph 28.2 mph 60% 0 in 0 W/m2
22:09 50.4 °F 37.8 °F 30.1 in WSW 14.5 mph 22.8 mph 62% 0 in 0 W/m2
22:14 50.5 °F 36.9 °F 30.1 in West 19.7 mph 28.9 mph 59% 0 in 0 W/m2
22:19 50.4 °F 36.1 °F 30.1 in WSW 18.3 mph 35.8 mph 58% 0 in 0 W/m2
22:24 50.4 °F 37 °F 30.1 in SW 15.9 mph 35.8 mph 60% 0 in 0 W/m2
22:29 50 °F 37.9 °F 30.1 in WSW 22.1 mph 29.8 mph 63% 0 in 0 W/m2
22:34 50.2 °F 38.1 °F 30.1 in WSW 21.3 mph 28.9 mph 63% 0 in 0 W/m2
22:39 50.2 °F 38.5 °F 30.1 in SW 15.2 mph 30.4 mph 64% 0 in 0 W/m2
22:44 50 °F 38.3 °F 30.1 in SW 12.1 mph 30.4 mph 64% 0 in 0 W/m2
22:49 50 °F 38.3 °F 30.1 in SW 24.4 mph 32.7 mph 64% 0 in 0 W/m2
22:54 49.8 °F 38.1 °F 30.1 in SW 16.8 mph 32.7 mph 64% 0 in 0 W/m2
22:59 49.8 °F 38.5 °F 30.1 in SW 17.4 mph 32.7 mph 65% 0 in 0 W/m2
23:04 49.8 °F 39.4 °F 30.1 in SW 13 mph 32.7 mph 67% 0 in 0 W/m2
23:09 49.8 °F 38.5 °F 30.1 in SW 19.7 mph 32.7 mph 65% 0 in 0 W/m2
23:14 50 °F 38.7 °F 30.1 in SW 19 mph 38 mph 65% 0 in 0 W/m2
23:19 49.8 °F 38.8 °F 30.1 in SW 17.4 mph 38 mph 66% 0 in 0 W/m2
23:24 49.8 °F 38.5 °F 30.1 in SW 28.2 mph 36.5 mph 65% 0.01 in 0 W/m2
23:29 49.8 °F 38.5 °F 30.1 in SW 19 mph 36.5 mph 65% 0.01 in 0 W/m2
23:34 49.5 °F 38.7 °F 30.1 in SW 19 mph 36.5 mph 66% 0.01 in 0 W/m2
23:39 49.3 °F 38.8 °F 30.1 in SW 15.9 mph 31.1 mph 67% 0.01 in 0 W/m2
23:44 49.1 °F 38.7 °F 30.1 in SW 13 mph 26.6 mph 67% 0.01 in 0 W/m2
23:49 48.9 °F 38.5 °F 30.1 in SW 14.5 mph 27.3 mph 67% 0.01 in 0 W/m2
23:54 48.9 °F 38.8 °F 30.1 in SW 14.5 mph 27.3 mph 68% 0.01 in 0 W/m2
23:59 48.9 °F 38.5 °F 30.1 in SW 21.3 mph 32 mph 67% 0.01 in 0 W/m2
Northern Hawkes Bay. New Zealand Historic Data
Compliments of Weather Underground - 2.25 mb